ADDS TAF Board (Experimental) INFO Settings
IDs: Format: Expanded Condensed

KMIA - Miami Intl, FL, US

Issued at 2344 UTC 28 Sep 2016
Updated at 0137 UTC 29 Sep 2016
Time0053Z 29/02Z 29/03Z 29/04Z 29/05Z 29/06Z 29/07Z 29/08Z 29/09Z 29/10Z 29/11Z 29/12Z 29/13Z 29/14Z
Type OBS PRVL PRVL PRVL PRVL PRVL PRVL PRVL PRVL PRVL PRVL PRVL PRVL PRVL
VIS 10 >6 >6 >6 >6 >6 >6 >6 >6 >6 >6 >6 >6 >6
CIG -- -- -- -- -- -- -- -- -- -- -- -- -- --
Cover FEW SCT SCT SCT SCT SCT SCT SCT SCT SCT SCT SCT SCT SCT
FltCat VFR VFR VFR VFR VFR VFR VFR VFR VFR VFR VFR VFR VFR VFR
WX -- -- -- -- -- -- -- -- -- -- -- -- -- --
WDir 250 VRB VRB VRB VRB VRB VRB VRB VRB VRB VRB VRB VRB VRB
WSpd 6 3 3 3 3 3 3 3 3 3 3 3 3 3
WGst -- -- -- -- -- -- -- -- -- -- -- -- -- --
R08/26
XWnd -2 VRB VRB VRB VRB VRB VRB VRB VRB VRB VRB VRB VRB VRB
HWnd -6 VRB VRB VRB VRB VRB VRB VRB VRB VRB VRB VRB VRB VRB
R09/27
XWnd -2 VRB VRB VRB VRB VRB VRB VRB VRB VRB VRB VRB VRB VRB
HWnd -6 VRB VRB VRB VRB VRB VRB VRB VRB VRB VRB VRB VRB VRB
R12/30
XWnd -5 VRB VRB VRB VRB VRB VRB VRB VRB VRB VRB VRB VRB VRB
HWnd -4 VRB VRB VRB VRB VRB VRB VRB VRB VRB VRB VRB VRB VRB

Raw TAF
KMIA 282344Z 2900/2924 VRB03KT P6SM FEW025 SCT250
  FM291700 17006KT P6SM VCSH SCT030
  FM291900 17008KT P6SM VCTS SCT025CB BKN250


Raw METAR
KMIA 290053Z 25006KT 10SM FEW025 FEW250 29/28 A3003 RMK AO2 SLP169 OCNL LTGIC DSNT N CB DSNT N T02940278
KMIA 282353Z 21006KT 10SM FEW025 FEW045 FEW130 SCT250 30/27 A3000 RMK AO2 SLP160 T03000267 10317 20283 51009
KMIA 282253Z 21008KT 10SM FEW025 FEW050 FEW130 SCT250 31/26 A3000 RMK AO2 LTG DSNT N SLP160 CB DSNT N-NE TCU DSNT W T03060261

METAR Board
Radar Display
Forecast Discussion

TAF Board Legend

Potential Impact
Threat None Slight Moderate High
Visibility (sm) ≥5.1 5.1>X≥3 3>X≥1 <1
Ceiling (100 ft) ≥30.1 30.1>X≥10 10>X≥5 <5
Wind Speed (kt) <10 10≤X<20 20≤X<30 ≥30
Wind Gust (kt) <15 15≤X<25 25≤X<35 ≥35
Weather No Wx Reported VCTS,-TS,-FZRA,SN TS,FZRA +TS,+FZRA,+SN